Time;durP1;ratioP1;P1;durP2;ratioP2;P2;SDS_P1;SDS_P2;PMS_P1;PMS_P2;Temp;Humidity;BMP_temperature;BMP_pressure;BME280_temperature;BME280_humidity;BME280_pressure;Samples;Min_cycle;Max_cycle;Signal;HPM_P1;HPM_P2
2021/04/05 00:00:38;;;;;;;48.92;17.98;;;;;;;4.80;72.99;101159.56;5046582;28;20053;-76
2021/04/05 00:03:05;;;;;;;42.83;16.95;;;;;;;4.85;72.78;101159.28;5038239;28;20044;-76
2021/04/05 00:05:35;;;;;;;59.75;19.25;;;;;;;4.86;72.72;101156.56;5049989;28;20049;-78
2021/04/05 00:08:01;;;;;;;55.70;19.80;;;;;;;4.83;72.96;101156.78;5054165;28;20052;-76
2021/04/05 00:10:31;;;;;;;44.65;18.65;;;;;;;4.79;73.17;101149.28;5063640;28;20472;-76
2021/04/05 00:13:00;;;;;;;40.92;19.60;;;;;;;4.74;73.21;101141.75;5045828;28;20056;-76
2021/04/05 00:15:26;;;;;;;44.75;18.35;;;;;;;4.73;73.40;101137.53;5062827;28;20949;-75
2021/04/05 00:17:52;;;;;;;54.85;20.20;;;;;;;4.75;73.14;101146.03;5062272;28;20056;-74
2021/04/05 00:20:25;;;;;;;47.22;20.77;;;;;;;4.78;73.22;101132.00;5057422;28;20165;-75
2021/04/05 00:22:51;;;;;;;47.15;21.65;;;;;;;4.79;73.38;101134.50;5058568;28;20645;-74
2021/04/05 00:25:17;;;;;;;43.35;19.08;;;;;;;4.72;73.33;101115.91;5051932;28;20110;-75
2021/04/05 00:27:44;;;;;;;48.17;20.13;;;;;;;4.78;73.00;101117.25;5065499;28;20561;-75
2021/04/05 00:30:16;;;;;;;57.50;21.57;;;;;;;4.83;73.38;101106.56;5055077;28;20144;-74
2021/04/05 00:32:49;;;;;;;52.00;20.05;;;;;;;4.81;73.22;101101.47;5061210;28;20285;-74
2021/04/05 00:35:21;;;;;;;48.72;19.10;;;;;;;4.80;73.37;101091.16;5060565;28;20040;-75
2021/04/05 00:37:49;;;;;;;60.95;24.33;;;;;;;4.83;72.97;101099.59;5059463;28;20775;-73
2021/04/05 00:40:20;;;;;;;49.85;20.33;;;;;;;4.78;73.28;101083.44;5063101;28;20487;-74
2021/04/05 00:42:47;;;;;;;52.05;20.48;;;;;;;4.74;73.58;101075.06;5058432;28;20113;-73
2021/04/05 00:45:15;;;;;;;50.63;22.30;;;;;;;4.78;73.52;101080.03;5054502;28;20462;-74
2021/04/05 00:47:43;;;;;;;52.15;22.08;;;;;;;4.77;73.64;101068.81;5047134;28;20055;-76
2021/04/05 00:50:09;;;;;;;53.55;22.20;;;;;;;4.81;73.74;101078.06;5053843;28;20106;-74
2021/04/05 00:52:37;;;;;;;58.67;20.88;;;;;;;4.78;73.77;101067.03;5058840;28;20052;-74
2021/04/05 00:55:07;;;;;;;46.50;21.27;;;;;;;4.82;73.58;101071.94;5062991;28;20052;-74
2021/04/05 00:57:34;;;;;;;60.33;22.23;;;;;;;4.87;73.47;101067.25;5059850;28;20056;-75
2021/04/05 01:00:04;;;;;;;46.67;20.15;;;;;;;4.89;73.12;101069.75;5053262;28;20423;-74
2021/04/05 01:02:33;;;;;;;58.13;21.63;;;;;;;4.87;73.31;101059.44;5056447;28;20479;-74
2021/04/05 01:04:59;;;;;;;47.00;22.10;;;;;;;4.85;73.49;101050.09;5048992;28;20060;-73
2021/04/05 01:07:25;;;;;;;48.35;19.67;;;;;;;4.86;73.67;101043.94;5052968;28;20057;-76
2021/04/05 01:09:51;;;;;;;49.70;20.63;;;;;;;4.85;73.45;101042.31;5051988;28;20550;-75
2021/04/05 01:12:17;;;;;;;45.50;19.83;;;;;;;4.90;73.38;101015.06;5050518;28;20060;-75
2021/04/05 01:14:43;;;;;;;56.05;21.30;;;;;;;4.95;73.40;101012.13;5056133;28;20045;-77
2021/04/05 01:17:09;;;;;;;56.60;25.48;;;;;;;5.00;73.09;101017.88;5036459;28;20056;-76
2021/04/05 01:19:35;;;;;;;51.58;21.60;;;;;;;5.07;72.84;101026.06;5057289;28;20052;-75
2021/04/05 01:22:01;;;;;;;54.55;19.38;;;;;;;5.07;72.97;101026.88;5057889;28;20090;-77
2021/04/05 01:24:27;;;;;;;59.30;22.20;;;;;;;5.11;73.09;101014.50;5050664;28;20110;-77
2021/04/05 01:26:53;;;;;;;48.45;19.85;;;;;;;5.10;72.96;101003.28;5051982;28;20454;-77
2021/04/05 01:29:19;;;;;;;47.58;19.70;;;;;;;5.17;72.96;101010.66;5062572;28;20048;-78
2021/04/05 01:31:45;;;;;;;53.90;20.88;;;;;;;5.18;72.95;101004.53;5045428;28;20098;-73
2021/04/05 01:34:12;;;;;;;46.13;19.88;;;;;;;5.20;73.16;100995.69;5049865;28;20048;-75
2021/04/05 01:36:38;;;;;;;48.88;22.83;;;;;;;5.23;72.96;101002.44;5053493;28;20129;-76
2021/04/05 01:39:04;;;;;;;53.28;22.60;;;;;;;5.26;73.27;100984.00;5056449;28;20060;-75
2021/04/05 01:41:31;;;;;;;49.80;22.38;;;;;;;5.27;73.23;100980.47;5049554;28;20764;-75
2021/04/05 01:43:59;;;;;;;47.77;20.13;;;;;;;5.30;73.01;100956.84;5042133;28;20049;-75
2021/04/05 01:46:29;;;;;;;46.97;20.08;;;;;;;5.32;73.45;100944.56;5049015;28;20851;-75
2021/04/05 01:48:58;;;;;;;48.53;19.67;;;;;;;5.33;73.15;100933.19;5045553;28;20463;-76
2021/04/05 01:51:25;;;;;;;46.88;20.85;;;;;;;5.37;73.25;100936.41;5041433;28;20078;-76
2021/04/05 01:53:53;;;;;;;47.63;19.92;;;;;;;5.42;73.41;100935.16;5051568;28;20499;-74
2021/04/05 01:56:19;;;;;;;39.33;18.07;;;;;;;5.47;73.28;100942.63;5043794;28;20262;-74
2021/04/05 01:58:48;;;;;;;44.75;20.52;;;;;;;5.45;73.10;100928.88;5049819;28;20290;-74
2021/04/05 02:01:16;;;;;;;53.55;22.80;;;;;;;5.44;73.03;100911.63;5049542;28;20140;-74
2021/04/05 02:03:43;;;;;;;44.22;19.17;;;;;;;5.49;73.36;100919.94;5050271;28;20049;-74
2021/04/05 02:06:15;;;;;;;50.00;20.27;;;;;;;5.60;73.79;100917.38;5063580;28;20048;-75
2021/04/05 02:08:43;;;;;;;42.95;18.80;;;;;;;5.63;73.48;100903.34;5055315;28;20106;-74
2021/04/05 02:11:15;;;;;;;47.85;19.85;;;;;;;5.67;73.48;100902.97;5052197;28;20049;-74
2021/04/05 02:13:44;;;;;;;51.97;20.10;;;;;;;5.72;73.64;100900.88;5040739;28;20104;-75
2021/04/05 02:16:17;;;;;;;50.53;19.40;;;;;;;5.67;73.60;100896.97;5051070;28;20053;-74
2021/04/05 02:18:44;;;;;;;46.78;19.73;;;;;;;5.71;73.35;100880.16;5039515;28;20110;-73
2021/04/05 02:21:13;;;;;;;56.17;21.67;;;;;;;5.77;74.05;100887.53;5060700;28;20060;-74
2021/04/05 02:23:40;;;;;;;51.42;19.25;;;;;;;5.77;73.97;100882.31;5046842;28;20053;-74
2021/04/05 02:26:07;;;;;;;41.83;19.17;;;;;;;5.77;73.43;100879.72;5058134;28;20053;-74
2021/04/05 02:28:44;;;;;;;60.83;19.63;;;;;;;5.78;73.63;100889.16;5044820;28;20052;-74
2021/04/05 02:31:14;;;;;;;46.53;19.80;;;;;;;5.84;74.11;100886.13;5051854;28;20048;-74
2021/04/05 02:33:42;;;;;;;41.85;18.05;;;;;;;5.86;73.92;100876.44;5057199;28;20106;-74
2021/04/05 02:36:11;;;;;;;43.10;19.23;;;;;;;5.90;74.29;100869.19;5036239;28;20092;-74
2021/04/05 02:38:38;;;;;;;;;;;;;;;5.86;74.02;100860.81;5056057;28;20052;-74
2021/04/05 02:41:09;;;;;;;;;;;;;;;5.87;74.54;100849.44;5055090;28;19925;-74
2021/04/05 02:43:36;;;;;;;50.40;19.33;;;;;;;5.89;74.44;100844.94;5055944;28;19925;-74
2021/04/05 02:46:04;;;;;;;48.67;19.33;;;;;;;5.90;74.51;100843.16;5055993;28;20141;-74
2021/04/05 02:48:35;;;;;;;44.03;17.98;;;;;;;5.92;74.60;100833.50;5057797;28;20051;-74
2021/04/05 02:51:03;;;;;;;36.35;18.35;;;;;;;5.88;75.33;100830.28;5055012;28;20052;-74
2021/04/05 02:53:31;;;;;;;45.92;18.20;;;;;;;5.91;75.17;100831.81;5063112;28;20068;-75
2021/04/05 02:56:04;;;;;;;48.55;19.63;;;;;;;5.90;75.49;100817.97;5051616;28;20488;-75
2021/04/05 02:58:43;;;;;;;50.17;19.27;;;;;;;5.94;75.70;100809.00;5055768;28;20052;-75
2021/04/05 03:01:10;;;;;;;44.95;18.55;;;;;;;5.93;75.98;100801.28;5051930;28;20053;-75
2021/04/05 03:03:41;;;;;;;53.05;19.80;;;;;;;6.01;76.11;100803.34;5051682;28;20055;-75
2021/04/05 03:06:08;;;;;;;49.22;19.20;;;;;;;5.99;76.07;100806.06;5062893;28;20170;-75
2021/04/05 03:08:35;;;;;;;52.70;18.92;;;;;;;5.98;76.03;100791.41;5062247;28;20125;-74
2021/04/05 03:11:04;;;;;;;50.85;18.95;;;;;;;6.03;76.63;100786.66;5056495;28;20158;-74
2021/04/05 03:13:33;;;;;;;44.05;18.23;;;;;;;6.04;76.12;100777.91;5048231;28;20044;-74
2021/04/05 03:15:59;;;;;;;56.25;20.02;;;;;;;6.11;75.79;100776.47;5044317;28;20071;-74
2021/04/05 03:18:27;;;;;;;56.15;19.98;;;;;;;6.07;76.17;100771.63;5039981;28;20185;-74
2021/04/05 03:20:55;;;;;;;55.85;19.63;;;;;;;6.07;76.25;100767.22;5037502;28;20060;-74
2021/04/05 03:23:22;;;;;;;47.58;18.33;;;;;;;6.05;76.45;100761.31;5043169;28;20060;-74
2021/04/05 03:25:48;;;;;;;61.13;20.05;;;;;;;6.08;76.79;100748.06;5048253;28;20052;-73
2021/04/05 03:28:16;;;;;;;52.78;19.92;;;;;;;6.09;76.51;100752.31;5049206;28;20060;-74
2021/04/05 03:30:58;;;;;;;52.72;19.17;;;;;;;6.07;77.02;100746.41;5044645;28;20122;-74
2021/04/05 03:33:34;;;;;;;56.67;18.60;;;;;;;6.03;77.33;100726.75;5037809;28;20064;-75
2021/04/05 03:36:05;;;;;;;53.30;19.60;;;;;;;6.05;77.44;100731.84;5049368;28;20171;-75
2021/04/05 03:38:34;;;;;;;53.53;18.73;;;;;;;6.04;77.19;100727.59;5055681;28;20056;-75
2021/04/05 03:41:04;;;;;;;46.42;19.23;;;;;;;6.02;77.22;100716.44;5066792;28;20113;-74
2021/04/05 03:43:48;;;;;;;45.50;19.48;;;;;;;6.00;77.82;100700.13;5056032;28;20082;-75
2021/04/05 03:46:21;;;;;;;49.50;18.60;;;;;;;6.04;77.99;100707.59;5063223;28;20161;-75
2021/04/05 03:48:58;;;;;;;51.45;20.15;;;;;;;6.10;77.23;100695.88;5061880;28;20053;-74
2021/04/05 03:52:01;;;;;;;53.70;19.30;;;;;;;6.11;78.09;100700.13;5060808;28;20105;-75
2021/04/05 03:54:35;;;;;;;56.47;19.80;;;;;;;6.13;77.48;100695.63;5020302;28;20466;-76
2021/04/05 03:57:02;;;;;;;48.35;20.15;;;;;;;6.13;77.96;100686.03;5063675;28;20161;-75
2021/04/05 03:59:38;;;;;;;54.92;19.52;;;;;;;6.13;78.12;100683.44;5061352;28;20114;-75
2021/04/05 04:02:14;;;;;;;47.65;19.30;;;;;;;6.12;77.83;100686.97;5047993;28;20130;-76
2021/04/05 04:04:50;;;;;;;50.83;18.65;;;;;;;6.12;78.17;100675.75;5056779;28;20059;-74
2021/04/05 04:07:25;;;;;;;40.65;17.17;;;;;;;6.03;78.48;100672.06;5058859;28;20052;-74
2021/04/05 04:09:55;;;;;;;51.42;20.70;;;;;;;6.09;78.92;100676.78;5066882;28;20105;-75
2021/04/05 04:12:23;;;;;;;50.40;20.23;;;;;;;6.08;78.30;100672.56;5051493;28;20048;-75
2021/04/05 04:14:49;;;;;;;49.70;19.58;;;;;;;6.05;79.00;100671.97;5056617;28;20111;-75
2021/04/05 04:17:17;;;;;;;52.45;19.55;;;;;;;6.11;78.67;100674.88;5056686;28;20124;-75
2021/04/05 04:19:45;;;;;;;48.43;20.20;;;;;;;6.12;78.63;100670.53;5065634;28;20056;-75
2021/04/05 04:22:12;;;;;;;64.15;20.55;;;;;;;6.13;78.90;100670.41;5057857;28;20122;-75
2021/04/05 04:24:39;;;;;;;46.97;18.83;;;;;;;6.13;78.73;100657.41;5060760;28;20129;-75
2021/04/05 04:27:05;;;;;;;52.45;19.35;;;;;;;6.16;79.18;100653.72;5047550;28;20091;-75
2021/04/05 04:29:31;;;;;;;56.25;20.50;;;;;;;6.13;78.71;100652.19;5054031;28;20126;-74
2021/04/05 04:31:58;;;;;;;53.88;20.30;;;;;;;6.22;78.90;100637.59;5054246;28;20098;-75
2021/04/05 04:34:25;;;;;;;57.80;19.67;;;;;;;6.22;78.81;100640.19;5040344;28;20057;-75
2021/04/05 04:36:51;;;;;;;52.95;21.95;;;;;;;6.18;78.93;100630.97;5054240;28;20048;-75
2021/04/05 04:39:19;;;;;;;53.03;20.23;;;;;;;6.27;79.23;100629.41;5055070;28;20057;-75
2021/04/05 04:41:48;;;;;;;51.53;20.55;;;;;;;6.29;79.03;100632.72;5055777;28;20067;-75
2021/04/05 04:44:14;;;;;;;56.13;18.17;;;;;;;6.29;79.01;100624.91;5064574;28;20082;-75
2021/04/05 04:46:41;;;;;;;52.65;20.33;;;;;;;6.32;79.47;100619.44;5058991;28;20052;-74
2021/04/05 04:49:12;;;;;;;54.38;19.60;;;;;;;6.40;79.38;100613.63;5062805;28;20106;-75
2021/04/05 04:51:39;;;;;;;50.35;18.50;;;;;;;6.40;79.03;100605.81;5053648;28;20053;-74
2021/04/05 04:54:08;;;;;;;45.80;19.80;;;;;;;6.44;79.22;100605.41;5050560;28;20049;-75
2021/04/05 04:56:35;;;;;;;51.50;20.92;;;;;;;6.46;79.08;100600.09;5042853;28;20060;-75
2021/04/05 04:59:06;;;;;;;49.78;18.45;;;;;;;6.54;79.43;100595.06;5063067;28;20618;-75
2021/04/05 05:01:35;;;;;;;45.70;17.75;;;;;;;6.52;79.06;100589.97;5053924;28;20113;-74
2021/04/05 05:04:24;;;;;;;45.75;18.50;;;;;;;6.59;79.27;100582.50;5053589;28;20113;-74
2021/04/05 05:06:53;;;;;;;46.50;17.88;;;;;;;6.64;78.80;100576.91;5072157;28;20041;-74
2021/04/05 05:09:20;;;;;;;47.45;17.85;;;;;;;6.64;78.50;100579.50;5053488;28;20419;-74
2021/04/05 05:11:46;;;;;;;45.65;17.35;;;;;;;6.65;78.86;100576.78;5062066;28;20427;-75
2021/04/05 05:14:16;;;;;;;45.33;17.88;;;;;;;6.71;78.77;100570.25;5055370;28;20110;-75
2021/04/05 05:16:43;;;;;;;43.85;15.70;;;;;;;6.72;78.86;100569.25;5061916;28;20074;-76
2021/04/05 05:19:13;;;;;;;46.28;17.55;;;;;;;6.70;79.14;100564.22;5059068;28;20058;-77
2021/04/05 05:21:47;;;;;;;49.47;18.70;;;;;;;6.77;78.53;100563.69;5060253;28;20561;-76
2021/04/05 05:24:17;;;;;;;46.72;18.23;;;;;;;6.75;78.83;100552.56;5059281;28;20455;-77
2021/04/05 05:26:44;;;;;;;46.08;17.65;;;;;;;6.75;78.88;100545.56;5056210;28;20053;-76
2021/04/05 05:29:13;;;;;;;42.20;17.92;;;;;;;6.77;78.45;100548.03;5060878;28;20053;-76
2021/04/05 05:31:41;;;;;;;45.65;16.48;;;;;;;6.77;78.50;100541.03;5046906;28;20059;-76
2021/04/05 05:34:08;;;;;;;39.33;15.32;;;;;;;6.74;78.36;100528.25;5049201;28;20048;-75
2021/04/05 05:36:38;;;;;;;41.55;17.23;;;;;;;6.77;78.88;100521.97;5053297;28;20069;-75
2021/04/05 05:39:05;;;;;;;35.08;16.60;;;;;;;6.80;78.53;100519.09;5060990;28;20053;-75
2021/04/05 05:41:50;;;;;;;32.72;15.68;;;;;;;6.83;78.07;100526.66;5050422;28;20137;-74
2021/04/05 05:44:33;;;;;;;36.83;14.63;;;;;;;6.88;78.35;100524.47;5054723;28;20049;-75
2021/04/05 05:47:11;;;;;;;32.90;13.02;;;;;;;6.90;78.40;100531.25;5059914;28;20462;-75
2021/04/05 05:50:02;;;;;;;31.30;11.02;;;;;;;6.93;79.46;100571.88;5047384;28;20052;-75
2021/04/05 05:53:18;;;;;;;9.57;3.83;;;;;;;6.78;77.09;100592.22;5058325;28;20048;-75
2021/04/05 05:56:02;;;;;;;9.68;2.78;;;;;;;6.58;77.61;100604.28;5063773;28;20044;-75
2021/04/05 05:58:39;;;;;;;6.25;1.65;;;;;;;6.27;76.62;100603.34;5063325;28;20484;-75
2021/04/05 06:01:13;;;;;;;3.20;1.70;;;;;;;6.13;77.70;100604.47;5063142;28;20060;-75
2021/04/05 06:03:48;;;;;;;4.55;1.42;;;;;;;6.07;78.66;100587.53;5059527;28;20052;-74
2021/04/05 06:06:36;;;;;;;6.40;1.55;;;;;;;6.06;78.77;100590.28;5051371;28;20060;-75
2021/04/05 06:09:18;;;;;;;9.63;1.60;;;;;;;5.96;78.72;100594.56;5059960;28;20426;-75
2021/04/05 06:12:12;;;;;;;4.97;1.92;;;;;;;5.97;79.22;100594.44;5056398;28;20308;-74
2021/04/05 06:15:10;;;;;;;4.28;1.33;;;;;;;5.89;78.65;100597.63;5043995;28;20680;-74
2021/04/05 06:17:54;;;;;;;5.55;1.27;;;;;;;5.84;78.46;100604.13;5038951;28;20072;-74
2021/04/05 06:20:28;;;;;;;6.07;1.15;;;;;;;5.86;78.94;100612.66;5058542;28;20742;-74
2021/04/05 06:23:28;;;;;;;4.45;1.00;;;;;;;5.75;78.09;100613.50;5049430;28;20126;-74
2021/04/05 06:26:22;;;;;;;5.70;1.25;;;;;;;5.68;78.30;100630.53;5057052;28;20056;-75
2021/04/05 06:29:02;;;;;;;4.40;1.35;;;;;;;5.69;78.94;100630.44;5055237;28;20583;-75
2021/04/05 06:31:44;;;;;;;6.15;1.13;;;;;;;5.68;77.75;100639.16;5056439;28;20142;-74
2021/04/05 06:34:28;;;;;;;4.45;1.52;;;;;;;5.71;78.38;100651.97;5048964;28;20150;-74
2021/04/05 06:37:07;;;;;;;5.82;1.23;;;;;;;5.58;77.33;100653.03;5052493;28;20048;-74
2021/04/05 06:39:39;;;;;;;3.38;1.42;;;;;;;5.55;78.24;100673.13;5045235;28;20455;-74
2021/04/05 06:42:16;;;;;;;4.68;1.50;;;;;;;5.46;77.31;100663.41;5062705;28;20114;-74
2021/04/05 06:44:42;;;;;;;7.57;1.30;;;;;;;5.57;78.34;100666.97;5049505;28;20491;-74
2021/04/05 06:47:24;;;;;;;6.40;1.20;;;;;;;5.62;78.59;100670.88;5055831;28;20976;-75
2021/04/05 06:50:30;;;;;;;5.82;1.02;;;;;;;5.60;77.49;100671.94;5041727;28;20689;-75
2021/04/05 06:53:33;;;;;;;5.38;1.30;;;;;;;5.51;76.65;100679.53;5050993;28;20059;-75
2021/04/05 06:56:07;;;;;;;7.93;1.30;;;;;;;5.48;76.62;100668.50;5043702;28;20553;-74
2021/04/05 06:59:32;;;;;;;3.60;1.02;;;;;;;5.52;75.89;100683.75;5051445;28;20133;-74
2021/04/05 07:02:16;;;;;;;7.03;1.25;;;;;;;5.55;76.40;100673.13;5008269;28;20536;-74
2021/04/05 07:05:01;;;;;;;12.00;2.00;;;;;;;5.52;75.25;100688.16;5021483;28;20053;-75
2021/04/05 07:07:43;;;;;;;8.57;1.88;;;;;;;5.49;74.33;100684.00;5064632;28;20101;-74
2021/04/05 07:10:21;;;;;;;10.82;1.35;;;;;;;5.55;75.03;100696.56;5061798;28;20057;-75
2021/04/05 07:13:00;;;;;;;;;;;;;;;5.49;75.15;100681.41;5055145;28;20056;-76
2021/04/05 07:15:37;;;;;;;8.07;1.05;;;;;;;5.49;75.61;100712.63;5054693;28;19928;-75
2021/04/05 07:18:27;;;;;;;3.45;0.85;;;;;;;5.26;75.33;100719.56;5057739;28;20052;-75
2021/04/05 07:21:14;;;;;;;4.20;0.95;;;;;;;5.15;76.42;100725.56;5056852;28;20516;-76
2021/04/05 07:24:02;;;;;;;2.50;0.60;;;;;;;5.17;76.38;100722.84;5054886;28;20500;-76
2021/04/05 07:26:38;;;;;;;5.05;0.73;;;;;;;5.23;76.66;100713.75;5058548;28;20537;-75
2021/04/05 07:29:17;;;;;;;4.63;1.10;;;;;;;5.23;75.75;100706.75;5055125;28;20106;-75
2021/04/05 07:32:04;;;;;;;4.22;0.60;;;;;;;5.22;75.88;100725.94;5045041;28;20048;-75
2021/04/05 07:35:04;;;;;;;5.18;0.75;;;;;;;5.14;75.06;100728.28;5050035;28;20057;-75
2021/04/05 07:37:30;;;;;;;2.25;0.60;;;;;;;5.09;75.48;100743.38;5050459;28;20117;-74
2021/04/05 07:40:06;;;;;;;15.25;1.05;;;;;;;4.89;75.51;100753.44;5060574;28;20059;-75
2021/04/05 07:43:01;;;;;;;3.88;1.00;;;;;;;4.91;76.22;100756.78;5052893;28;20122;-75
2021/04/05 07:46:05;;;;;;;14.00;1.25;;;;;;;4.83;75.61;100766.91;5055857;28;20056;-75
2021/04/05 07:48:36;;;;;;;11.68;1.38;;;;;;;4.64;76.05;100771.75;5055539;28;20560;-75
2021/04/05 07:51:43;;;;;;;15.07;1.80;;;;;;;4.52;75.86;100782.06;5048622;28;20059;-75
2021/04/05 07:54:10;;;;;;;13.57;1.98;;;;;;;4.34;75.53;100783.38;5043910;28;20503;-75
2021/04/05 07:56:50;;;;;;;17.08;2.17;;;;;;;4.39;76.95;100794.28;5060649;28;20056;-75
2021/04/05 07:59:48;;;;;;;15.35;2.20;;;;;;;4.37;76.89;100798.72;5040103;28;20056;-75
2021/04/05 08:02:33;;;;;;;22.92;3.53;;;;;;;4.23;74.96;100809.25;5044224;28;20072;-74
2021/04/05 08:05:24;;;;;;;13.75;2.60;;;;;;;4.22;75.44;100818.81;5049387;28;20049;-75
2021/04/05 08:07:54;;;;;;;22.85;3.53;;;;;;;4.13;74.13;100825.44;5047890;28;20110;-75
2021/04/05 08:10:25;;;;;;;21.13;2.60;;;;;;;4.05;73.26;100826.91;5052859;28;20080;-75
2021/04/05 08:13:14;;;;;;;21.95;2.17;;;;;;;3.94;73.33;100830.25;5063359;28;20454;-75
2021/04/05 08:16:01;;;;;;;12.70;1.88;;;;;;;4.04;73.39;100817.44;5057080;28;20060;-74
2021/04/05 08:18:36;;;;;;;18.40;2.43;;;;;;;4.12;73.65;100821.19;5076734;28;20075;-75
2021/04/05 08:21:10;;;;;;;15.40;2.30;;;;;;;4.20;72.68;100812.88;5055618;28;20135;-75
2021/04/05 08:23:52;;;;;;;17.00;2.40;;;;;;;4.19;71.34;100826.78;5058973;28;20435;-75
2021/04/05 08:26:41;;;;;;;24.88;2.92;;;;;;;4.34;72.33;100817.13;5059398;28;20563;-74
2021/04/05 08:29:22;;;;;;;21.40;2.50;;;;;;;4.49;71.70;100839.44;5061392;28;20053;-74
2021/04/05 08:32:09;;;;;;;16.40;2.63;;;;;;;4.50;69.02;100842.88;5061739;28;20057;-74
2021/04/05 08:34:56;;;;;;;16.63;2.00;;;;;;;4.51;67.71;100847.16;5066338;28;20052;-74
2021/04/05 08:37:56;;;;;;;21.35;2.63;;;;;;;4.60;66.83;100849.06;5059300;28;20060;-74
2021/04/05 08:40:40;;;;;;;14.30;2.05;;;;;;;4.68;65.38;100869.34;5057861;28;20436;-75
2021/04/05 08:43:22;;;;;;;10.75;1.88;;;;;;;4.69;64.39;100851.03;5056309;28;20061;-75
2021/04/05 08:45:49;;;;;;;18.38;1.92;;;;;;;4.78;65.51;100865.16;5065642;28;20048;-75
2021/04/05 08:48:18;;;;;;;16.50;2.67;;;;;;;4.83;63.80;100860.47;5057936;28;20126;-75
2021/04/05 08:50:54;;;;;;;14.18;2.38;;;;;;;5.03;64.59;100866.84;5054858;28;20048;-75
2021/04/05 08:53:23;;;;;;;12.52;2.00;;;;;;;5.04;62.24;100858.13;5058612;28;20053;-75
2021/04/05 08:55:51;;;;;;;15.38;1.95;;;;;;;5.20;62.93;100864.81;5047328;28;20777;-75
2021/04/05 08:58:39;;;;;;;6.63;1.35;;;;;;;5.37;63.07;100868.78;5065025;28;20063;-75
2021/04/05 09:01:11;;;;;;;9.05;1.38;;;;;;;5.33;58.46;100865.56;5055159;28;20102;-76
2021/04/05 09:03:42;;;;;;;11.65;1.52;;;;;;;5.29;59.18;100858.94;5054975;28;20891;-74
2021/04/05 09:06:15;;;;;;;11.02;2.38;;;;;;;5.32;58.85;100858.72;5051970;28;20048;-75
2021/04/05 09:08:44;;;;;;;6.93;1.17;;;;;;;5.42;59.39;100861.50;5062442;28;20060;-74
2021/04/05 09:11:12;;;;;;;10.00;1.88;;;;;;;5.37;59.06;100877.44;5059400;28;20052;-74
2021/04/05 09:13:49;;;;;;;8.95;1.25;;;;;;;5.21;57.90;100874.28;5059406;28;20484;-75
2021/04/05 09:16:39;;;;;;;8.35;1.50;;;;;;;5.15;59.21;100879.00;5053159;28;20049;-75
2021/04/05 09:19:21;;;;;;;10.57;1.20;;;;;;;5.02;60.68;100905.94;5060738;28;20075;-75
2021/04/05 09:22:14;;;;;;;10.43;1.05;;;;;;;4.91;65.07;100930.09;5059196;28;20680;-76
2021/04/05 09:24:49;;;;;;;4.85;0.93;;;;;;;4.81;64.47;100918.69;5063848;28;20064;-76
2021/04/05 09:27:24;;;;;;;10.00;1.55;;;;;;;5.02;65.71;100930.19;5046224;28;20049;-77
2021/04/05 09:30:32;;;;;;;4.25;0.90;;;;;;;5.10;65.38;100938.28;5053471;28;20111;-75
2021/04/05 09:33:35;;;;;;;6.38;1.00;;;;;;;5.15;64.27;100948.34;5061744;28;20464;-75
2021/04/05 09:36:27;;;;;;;5.13;1.48;;;;;;;5.04;65.30;100956.09;5049385;28;20059;-76
2021/04/05 09:39:17;;;;;;;5.03;1.10;;;;;;;4.86;68.56;100973.78;5053820;28;20053;-77
2021/04/05 09:42:05;;;;;;;3.95;0.93;;;;;;;4.61;67.41;100970.28;5062048;28;20056;-77
2021/04/05 09:45:08;;;;;;;4.03;0.50;;;;;;;4.76;66.98;100960.56;5065703;28;20067;-77
2021/04/05 09:47:53;;;;;;;5.95;0.52;;;;;;;4.71;65.47;100949.69;5043444;28;20044;-76
2021/04/05 09:50:57;;;;;;;2.88;0.60;;;;;;;4.56;64.67;100967.97;5062171;28;20123;-77
2021/04/05 09:53:29;;;;;;;5.10;0.68;;;;;;;4.51;65.67;100979.63;5054850;28;20052;-74
2021/04/05 09:56:10;;;;;;;5.57;0.82;;;;;;;4.37;66.19;100964.94;5077948;28;20070;-74
2021/04/05 09:58:49;;;;;;;6.13;0.80;;;;;;;4.42;65.99;100977.63;5085437;28;20434;-75
2021/04/05 10:01:25;;;;;;;7.88;0.82;;;;;;;4.55;65.47;100986.28;5078964;28;20539;-75
2021/04/05 10:04:05;;;;;;;5.43;1.13;;;;;;;4.53;64.93;100978.56;5073329;28;20052;-74
2021/04/05 10:06:34;;;;;;;9.88;1.15;;;;;;;4.74;65.73;100989.28;5067873;28;20051;-74
2021/04/05 10:09:03;;;;;;;12.73;2.35;;;;;;;4.66;63.08;100982.94;5058709;28;20055;-75
2021/04/05 10:11:33;;;;;;;7.25;1.13;;;;;;;4.74;62.27;100986.69;5047845;28;20056;-76
2021/04/05 10:14:04;;;;;;;6.80;1.42;;;;;;;4.93;62.15;100994.03;5043836;28;20058;-75
2021/04/05 10:16:32;;;;;;;9.10;1.63;;;;;;;4.88;60.67;100990.09;5064712;28;20056;-76
2021/04/05 10:19:15;;;;;;;6.37;1.33;;;;;;;4.90;58.74;100988.22;5055227;28;20055;-76
2021/04/05 10:21:45;;;;;;;9.77;1.60;;;;;;;4.91;58.33;101010.69;5081127;28;20803;-75
2021/04/05 10:24:13;;;;;;;5.93;1.10;;;;;;;4.70;57.36;101024.19;5066627;28;20117;-77
2021/04/05 10:26:41;;;;;;;6.50;1.00;;;;;;;4.54;57.30;101029.59;5074147;28;20056;-76
2021/04/05 10:29:11;;;;;;;11.63;2.00;;;;;;;4.25;56.84;101023.72;5062286;28;20076;-75
2021/04/05 10:31:39;;;;;;;13.73;1.95;;;;;;;4.39;58.22;101028.03;5055755;28;20137;-76
2021/04/05 10:34:08;;;;;;;9.45;1.30;;;;;;;4.35;56.04;101023.94;5048302;28;20049;-75
2021/04/05 10:36:43;;;;;;;;;;;;;;;4.34;56.15;101017.09;5064010;28;20048;-75
2021/04/05 10:39:09;;;;;;;11.75;1.95;;;;;;;4.49;57.31;101026.47;5069668;28;19924;-76
2021/04/05 10:41:42;;;;;;;18.17;2.45;;;;;;;4.76;57.13;101025.56;5068403;28;20063;-76
2021/04/05 10:44:12;;;;;;;15.75;1.90;;;;;;;5.13;57.02;101030.84;5074699;28;20561;-76
2021/04/05 10:46:46;;;;;;;13.13;1.55;;;;;;;5.07;55.90;101049.47;5066782;28;20135;-76
2021/04/05 10:49:15;;;;;;;10.25;1.50;;;;;;;4.72;51.23;101045.75;5077704;28;20052;-76
2021/04/05 10:52:09;;;;;;;11.23;1.70;;;;;;;4.68;51.51;101064.22;5066729;28;20389;-76
2021/04/05 10:54:47;;;;;;;8.73;1.73;;;;;;;4.53;50.37;101047.91;5057924;28;20051;-77
2021/04/05 10:57:18;;;;;;;14.98;1.48;;;;;;;4.54;51.46;101058.16;5057320;28;20086;-77
2021/04/05 10:59:45;;;;;;;9.00;1.40;;;;;;;4.80;53.29;101053.00;5051459;28;20159;-76
2021/04/05 11:02:19;;;;;;;11.55;1.52;;;;;;;5.23;50.48;101052.66;5080158;28;20075;-77
2021/04/05 11:04:57;;;;;;;10.18;1.20;;;;;;;5.08;49.36;101046.78;5056977;28;20121;-77
2021/04/05 11:07:25;;;;;;;10.88;1.75;;;;;;;5.16;47.51;101051.44;5073654;28;20051;-77
2021/04/05 11:09:55;;;;;;;12.18;1.65;;;;;;;5.78;48.90;101055.75;5075299;28;20056;-77
2021/04/05 11:12:23;;;;;;;11.93;1.77;;;;;;;6.20;46.87;101055.44;5059052;28;20082;-77
2021/04/05 11:14:51;;;;;;;13.18;2.05;;;;;;;6.65;48.13;101042.53;5061371;28;20051;-77
2021/04/05 11:17:20;;;;;;;19.58;2.50;;;;;;;6.46;46.93;101069.97;5061062;28;20059;-78
2021/04/05 11:19:53;;;;;;;10.98;1.67;;;;;;;6.42;50.43;101098.97;5065808;28;20059;-76
2021/04/05 11:22:26;;;;;;;11.45;1.80;;;;;;;5.79;55.09;101147.72;5077617;28;20051;-76
2021/04/05 11:24:58;;;;;;;15.05;1.73;;;;;;;4.84;57.51;101132.44;5077205;28;20052;-75
2021/04/05 11:27:27;;;;;;;8.55;1.10;;;;;;;4.22;56.63;101129.56;5044184;28;20074;-77
2021/04/05 11:29:57;;;;;;;19.42;1.92;;;;;;;3.99;57.30;101126.66;5084902;28;20085;-76
2021/04/05 11:32:27;;;;;;;19.67;2.05;;;;;;;3.92;58.18;101128.81;5067023;28;20052;-76
2021/04/05 11:34:57;;;;;;;9.80;1.67;;;;;;;3.93;59.05;101120.06;5057910;28;20059;-76
2021/04/05 11:37:30;;;;;;;13.82;2.35;;;;;;;3.90;57.02;101115.09;5061600;28;20518;-77
2021/04/05 11:40:10;;;;;;;8.50;1.45;;;;;;;4.05;58.12;101115.88;5073029;28;20106;-76
2021/04/05 11:42:46;;;;;;;9.38;1.60;;;;;;;4.32;57.21;101092.50;5061379;28;20105;-75
2021/04/05 11:45:21;;;;;;;17.77;1.85;;;;;;;5.01;56.85;101096.69;5068868;28;20143;-76
2021/04/05 11:47:49;;;;;;;10.75;1.42;;;;;;;5.54;58.17;101090.38;5061399;28;20053;-76
2021/04/05 11:50:17;;;;;;;15.80;1.70;;;;;;;5.74;53.32;101094.22;5065190;28;20504;-76
2021/04/05 11:52:46;;;;;;;21.17;1.87;;;;;;;5.98;53.54;101095.19;5061751;28;20048;-76
2021/04/05 11:55:20;;;;;;;16.13;1.63;;;;;;;6.25;50.93;101077.59;5071391;28;20068;-76
2021/04/05 11:58:01;;;;;;;19.67;1.73;;;;;;;6.60;50.60;101092.38;5084040;28;20052;-76